Hovedside
METAR-TAF:

METAR-TAF

Lufthavner :

José Martí internasjonale lufthavn

Havanna, Cuba

breddegrad: 22-59N, lengdegrad: 082-24W, høyde over havet: 59 m

Gjeldene værobservasjon

Denne rapporten ble laget for 29 minutter siden, klokken 11:55 UTC
Vind 2 kt fra Øst-nordøst
Temperatur 23°C
Luftfuktighet 100%
Trykk 1018 hPa
Sikt: 9000 m
Få skyer i en høyde av 3000 ft

METAR: MUHA 161155Z 06002KT 9000 FEW030 23/23 Q1018

Tid: 08:24 (12:24 UTC)

Varsel

Denne rapporten ble laget for 1 time og 24 minutter siden, klokken 11:00 UTC
Varsel gyldig fra 16. klokken 12 UTC til 17. klokken 12 UTC
Vind 5 kt fra Øst
Sikt: 9000 m
Få skyer i en høyde av 3000 ft
Blir
fra 16. klokken 14 UTC til 16. klokken 16 UTC
Vind 11 kt fra Nord-nordøst
Midlertidig
fra 16. klokken 19 UTC til 16. klokken 24 UTC
Sikt: 5000 m
Få skyer i en høyde av 1800 ft, Bygeskyer.
Brutte skyer i en høyde av 2500 ft
regnbyger

TAF: MUHA 161100Z 1612/1712 09005KT 9000 FEW030 BECMG 1614/1616 02011KT TEMPO 1619/1624 5000 SHRA FEW018CB BKN025

Værobservasjoner og værvarsel for over 4000 flyplasser (METAR- og TAF-rapporter).

Tilgjengelige stasjoner er representert av de røde og gule prikkene på kartet.

Hold musepekeren over prikken for å se navnet på stasjonen.

Klikk så for å se værobservasjoner og -varsler.

For å forandre kartet kan du klikke på den grønne knappen med svart kryss for å zoome inn, på den grønne knappen med strek for å zoome ut, eller på de grønne pilene for å se tilstøtende kart.


METAR-TAF: